createdAt,value
2019-03-04T00:00:55.113Z,3.87
2019-03-04T00:03:25.715Z,4.15
2019-03-04T00:05:56.200Z,4.00
2019-03-04T00:08:26.653Z,4.10
2019-03-04T00:10:57.141Z,4.33
2019-03-04T00:13:27.596Z,3.90
2019-03-04T00:15:58.005Z,4.10
2019-03-04T00:18:28.513Z,3.77
2019-03-04T00:20:58.943Z,4.05
2019-03-04T00:23:29.392Z,3.80
2019-03-04T00:25:59.810Z,3.65
2019-03-04T00:28:30.338Z,3.42
2019-03-04T00:31:00.772Z,4.05
2019-03-04T00:33:31.418Z,3.80
2019-03-04T00:36:01.826Z,3.12
2019-03-04T00:38:32.354Z,3.80
2019-03-04T00:41:02.772Z,2.87
2019-03-04T00:43:33.215Z,3.02
2019-03-04T00:46:03.640Z,3.25
2019-03-04T00:48:34.192Z,3.08
2019-03-04T00:51:04.596Z,3.30
2019-03-04T00:53:35.043Z,3.20
2019-03-04T00:56:05.442Z,3.00
2019-03-04T00:58:35.901Z,2.87
2019-03-04T01:01:06.324Z,2.87
2019-03-04T01:03:36.774Z,2.90
2019-03-04T01:06:07.193Z,3.22
2019-03-04T01:08:37.643Z,2.60
2019-03-04T01:11:09.219Z,2.80
2019-03-04T01:13:39.745Z,3.00
2019-03-04T01:16:10.165Z,2.95
2019-03-04T01:18:40.694Z,3.10
2019-03-04T01:21:11.116Z,3.27
2019-03-04T01:23:41.636Z,3.10
2019-03-04T01:26:12.061Z,3.37
2019-03-04T01:28:42.515Z,3.35
2019-03-04T01:31:12.992Z,2.80
2019-03-04T01:33:43.443Z,3.10
2019-03-04T01:36:13.865Z,3.10
2019-03-04T01:38:44.710Z,2.70
2019-03-04T01:41:15.105Z,3.45
2019-03-04T01:43:45.574Z,2.60
2019-03-04T01:46:16.985Z,3.05
2019-03-04T01:48:47.595Z,3.30
2019-03-04T01:51:18.036Z,3.00
2019-03-04T01:53:49.562Z,2.80
2019-03-04T01:56:19.985Z,3.22
2019-03-04T01:58:50.511Z,3.10
2019-03-04T02:01:20.914Z,3.62
2019-03-04T02:03:51.370Z,3.77
2019-03-04T02:06:21.802Z,3.20
2019-03-04T02:08:52.336Z,3.20
2019-03-04T02:11:22.876Z,2.58
2019-03-04T02:13:53.410Z,2.55
2019-03-04T02:16:23.841Z,2.60
2019-03-04T02:18:54.357Z,2.50
2019-03-04T02:21:24.764Z,2.65
2019-03-04T02:23:55.205Z,2.60
2019-03-04T02:26:25.703Z,2.60
2019-03-04T02:28:56.158Z,2.42
2019-03-04T02:31:26.566Z,2.70
2019-03-04T02:33:57.025Z,2.22
2019-03-04T02:36:27.439Z,2.60
2019-03-04T02:38:57.898Z,2.17
2019-03-04T02:41:28.322Z,2.47
2019-03-04T02:43:58.819Z,2.52
2019-03-04T02:46:29.262Z,2.10
2019-03-04T02:48:59.780Z,2.72
2019-03-04T02:51:30.254Z,2.58
2019-03-04T02:54:00.693Z,2.40
2019-03-04T02:56:31.110Z,2.80
2019-03-04T02:59:01.637Z,2.60
2019-03-04T03:01:32.074Z,2.70
2019-03-04T03:04:02.521Z,2.50
2019-03-04T03:06:33.084Z,2.70
2019-03-04T03:09:04.536Z,2.75
2019-03-04T03:11:36.220Z,2.45
2019-03-04T03:14:06.640Z,2.98
2019-03-04T03:16:37.138Z,2.62
2019-03-04T03:19:07.680Z,2.30
2019-03-04T03:21:38.111Z,2.85
2019-03-04T03:24:08.567Z,2.67
2019-03-04T03:26:40.064Z,2.65
2019-03-04T03:29:10.513Z,2.65
2019-03-04T03:31:40.928Z,2.52
2019-03-04T03:34:11.383Z,2.98
2019-03-04T03:36:41.847Z,3.02
2019-03-04T03:39:12.291Z,2.52
2019-03-04T03:41:42.774Z,2.45
2019-03-04T03:44:13.317Z,2.42
2019-03-04T03:46:43.745Z,2.98
2019-03-04T03:49:14.194Z,2.55
2019-03-04T03:51:44.595Z,2.62
2019-03-04T03:54:15.053Z,2.83
2019-03-04T03:56:45.466Z,2.45
2019-03-04T03:59:15.927Z,2.72
2019-03-04T04:01:46.351Z,2.58
2019-03-04T04:04:17.288Z,2.85
2019-03-04T04:06:47.692Z,2.80
2019-03-04T04:09:18.211Z,2.77
2019-03-04T04:11:48.610Z,2.60
2019-03-04T04:14:19.070Z,2.83
2019-03-04T04:16:49.546Z,2.98
2019-03-04T04:19:20.001Z,3.05
2019-03-04T04:21:50.415Z,2.50
2019-03-04T04:24:21.953Z,3.08
2019-03-04T04:26:52.447Z,2.52
2019-03-04T04:29:22.917Z,2.72
2019-03-04T04:31:53.327Z,2.75
2019-03-04T04:34:23.781Z,2.70
2019-03-04T04:36:54.207Z,2.40
2019-03-04T04:39:25.307Z,2.85
2019-03-04T04:41:55.784Z,2.85
2019-03-04T04:44:26.251Z,2.77
2019-03-04T04:46:56.680Z,2.87
2019-03-04T04:49:27.121Z,3.00
2019-03-04T04:51:57.612Z,2.95
2019-03-04T04:54:28.062Z,3.00
2019-03-04T04:56:58.463Z,2.40
2019-03-04T04:59:28.897Z,2.58
2019-03-04T05:01:59.377Z,2.95
2019-03-04T05:04:30.190Z,3.27
2019-03-04T05:07:00.675Z,3.17
2019-03-04T05:09:31.115Z,3.22
2019-03-04T05:12:01.536Z,3.20
2019-03-04T05:14:32.053Z,3.52
2019-03-04T05:17:02.536Z,4.22
2019-03-04T05:19:33.058Z,2.87
2019-03-04T05:22:03.501Z,5.78
2019-03-04T05:24:33.955Z,4.15
2019-03-04T05:27:05.445Z,3.60
2019-03-04T05:29:35.903Z,3.37
2019-03-04T05:32:06.393Z,7.70
2019-03-04T05:34:36.818Z,3.70
2019-03-04T05:37:07.502Z,3.30
2019-03-04T05:39:37.958Z,3.25
2019-03-04T05:42:08.380Z,3.92
2019-03-04T05:44:38.933Z,3.85
2019-03-04T05:47:09.424Z,4.15
2019-03-04T05:49:39.974Z,3.80
2019-03-04T05:52:10.414Z,3.45
2019-03-04T05:54:40.861Z,3.40
2019-03-04T05:57:11.645Z,3.27
2019-03-04T05:59:43.910Z,3.70
2019-03-04T06:02:14.487Z,3.60
2019-03-04T06:04:44.966Z,5.58
2019-03-04T06:07:19.978Z,5.37
2019-03-04T06:09:50.510Z,4.37
2019-03-04T06:12:20.989Z,3.17
2019-03-04T06:14:51.483Z,3.75
2019-03-04T06:17:21.950Z,3.85
2019-03-04T06:19:52.418Z,3.85
2019-03-04T06:22:22.865Z,3.50
2019-03-04T06:24:53.388Z,4.05
2019-03-04T06:27:23.826Z,4.12
2019-03-04T06:29:54.291Z,4.80
2019-03-04T06:32:26.421Z,5.72
2019-03-04T06:34:57.368Z,6.15
2019-03-04T06:37:27.845Z,5.72
2019-03-04T06:39:58.354Z,6.42
2019-03-04T06:42:29.003Z,8.20
2019-03-04T06:44:59.452Z,6.90
2019-03-04T06:47:29.903Z,7.37
2019-03-04T06:50:00.372Z,6.80
2019-03-04T06:52:30.891Z,6.70
2019-03-04T06:55:07.548Z,6.15
2019-03-04T06:57:38.047Z,5.75
2019-03-04T07:00:17.014Z,5.10
2019-03-04T07:02:47.680Z,4.40
2019-03-04T07:05:24.603Z,4.90
2019-03-04T07:07:56.093Z,5.37
2019-03-04T07:10:28.455Z,5.70
2019-03-04T07:12:58.949Z,6.65
2019-03-04T07:15:29.577Z,6.62
2019-03-04T07:18:00.167Z,6.50
2019-03-04T07:20:30.788Z,6.35
2019-03-04T07:23:04.016Z,6.22
2019-03-04T07:25:34.479Z,6.37
2019-03-04T07:28:08.425Z,7.00
2019-03-04T07:30:47.375Z,6.28
2019-03-04T07:33:17.924Z,7.60
2019-03-04T07:35:48.866Z,7.40
2019-03-04T07:38:22.585Z,5.58
2019-03-04T07:40:55.657Z,6.15
2019-03-04T07:43:37.925Z,6.10
2019-03-04T07:46:08.527Z,5.70
2019-03-04T07:48:40.683Z,6.78
2019-03-04T07:51:20.457Z,6.03
2019-03-04T07:53:57.256Z,9.00
2019-03-04T07:56:34.235Z,16.57
2019-03-04T07:59:05.854Z,13.50
2019-03-04T08:01:43.867Z,8.78
2019-03-04T08:04:14.631Z,4.80
2019-03-04T08:06:50.275Z,10.43
2019-03-04T08:09:26.739Z,5.33
2019-03-04T08:12:17.276Z,6.37
2019-03-04T08:15:08.313Z,4.25
2019-03-04T08:17:39.330Z,5.40
2019-03-04T08:20:09.832Z,6.45
2019-03-04T08:22:40.379Z,5.55
2019-03-04T08:25:11.933Z,6.30
2019-03-04T08:27:54.470Z,6.33
2019-03-04T08:30:42.833Z,5.25
2019-03-04T08:33:13.363Z,6.42
2019-03-04T08:35:43.839Z,5.28
2019-03-04T08:38:29.612Z,5.95
2019-03-04T08:41:18.269Z,5.78
2019-03-04T08:44:06.291Z,4.55
2019-03-04T08:46:51.861Z,6.45
2019-03-04T08:49:40.742Z,5.25
2019-03-04T08:52:17.378Z,5.58
2019-03-04T08:55:07.607Z,6.15
2019-03-04T08:57:38.188Z,5.00
2019-03-04T09:00:26.100Z,4.55
2019-03-04T09:02:56.542Z,4.92
2019-03-04T09:05:36.234Z,5.60
2019-03-04T09:08:12.914Z,5.10
2019-03-04T09:10:49.698Z,4.22
2019-03-04T09:13:38.402Z,4.72
2019-03-04T09:16:26.475Z,4.10
2019-03-04T09:18:56.974Z,4.92
2019-03-04T09:21:42.669Z,4.53
2019-03-04T09:24:23.791Z,3.90
2019-03-04T09:26:54.257Z,4.30
2019-03-04T09:29:30.810Z,3.85
2019-03-04T09:32:18.746Z,3.98
2019-03-04T09:35:10.119Z,4.22
2019-03-04T09:37:42.145Z,4.67
2019-03-04T09:40:32.044Z,3.70
2019-03-04T09:43:21.099Z,4.03
2019-03-04T09:45:51.631Z,3.83
2019-03-04T09:48:31.192Z,3.30
2019-03-04T09:51:07.756Z,3.47
2019-03-04T09:53:50.841Z,3.92
2019-03-04T09:56:27.245Z,3.90
2019-03-04T09:59:15.493Z,3.80
2019-03-04T10:01:49.574Z,3.22
2019-03-04T10:04:38.903Z,2.95
2019-03-04T10:07:33.316Z,3.17
2019-03-04T10:10:33.219Z,3.00
2019-03-04T10:13:27.149Z,3.02
2019-03-04T10:16:04.602Z,2.90
2019-03-04T10:18:54.593Z,3.58
2019-03-04T10:21:59.774Z,3.12
2019-03-04T10:24:48.830Z,3.02
2019-03-04T10:27:31.508Z,3.25
2019-03-04T10:30:11.371Z,2.80
2019-03-04T10:32:57.936Z,2.70
2019-03-04T10:35:51.335Z,3.65
2019-03-04T10:38:32.928Z,3.08
2019-03-04T10:41:28.191Z,3.08
2019-03-04T10:44:37.835Z,3.47
2019-03-04T10:47:06.038Z,4.30
2019-03-04T10:49:38.441Z,3.30
2019-03-04T10:52:10.436Z,2.67
2019-03-04T10:54:42.359Z,3.10
2019-03-04T10:57:12.956Z,3.05
2019-03-04T10:59:44.718Z,3.25
2019-03-04T11:02:15.630Z,3.02
2019-03-04T11:04:47.421Z,2.80
2019-03-04T11:07:18.490Z,2.87
2019-03-04T11:09:49.010Z,2.55
2019-03-04T11:12:21.146Z,2.95
2019-03-04T11:14:54.057Z,2.60
2019-03-04T11:17:25.611Z,2.42
2019-03-04T11:19:56.136Z,3.30
2019-03-04T11:22:26.638Z,4.87
2019-03-04T11:24:58.318Z,3.20
2019-03-04T11:27:30.729Z,3.72
2019-03-04T11:30:03.014Z,3.67
2019-03-04T11:32:34.794Z,2.98
2019-03-04T11:35:10.169Z,3.20
2019-03-04T11:37:41.606Z,2.80
2019-03-04T11:40:25.843Z,3.05
2019-03-04T11:42:56.908Z,2.70
2019-03-04T11:45:30.111Z,2.60
2019-03-04T11:48:01.557Z,2.52
2019-03-04T11:50:35.242Z,3.27
2019-03-04T11:53:08.769Z,3.10
2019-03-04T11:55:40.370Z,2.87
2019-03-04T11:58:12.500Z,3.83
2019-03-04T12:00:59.445Z,3.70
2019-03-04T12:03:29.935Z,3.87
2019-03-04T12:06:02.041Z,4.10
2019-03-04T12:08:34.565Z,3.20
2019-03-04T12:11:08.725Z,3.27
2019-03-04T12:13:40.404Z,2.72
2019-03-04T12:16:10.936Z,3.10
2019-03-04T12:18:41.440Z,2.98
2019-03-04T12:21:15.401Z,3.50
2019-03-04T12:23:46.117Z,3.62
2019-03-04T12:26:18.590Z,3.15
2019-03-04T12:28:52.438Z,4.25
2019-03-04T12:31:24.624Z,3.30
2019-03-04T12:33:56.722Z,2.77
2019-03-04T12:36:29.695Z,2.70
2019-03-04T12:39:02.650Z,2.92
2019-03-04T12:41:36.187Z,3.37
2019-03-04T12:44:07.013Z,2.45
2019-03-04T12:46:37.529Z,2.80
2019-03-04T12:49:09.171Z,2.30
2019-03-04T12:51:40.779Z,2.50
2019-03-04T12:54:11.289Z,2.00
2019-03-04T12:56:43.685Z,2.72
2019-03-04T12:59:14.720Z,2.60
2019-03-04T13:01:46.745Z,2.65
2019-03-04T13:04:17.432Z,3.22
2019-03-04T13:06:47.890Z,3.02
2019-03-04T13:09:19.357Z,2.87
2019-03-04T13:11:49.897Z,2.75
2019-03-04T13:14:21.351Z,3.52
2019-03-04T13:16:53.376Z,2.92
2019-03-04T13:19:24.347Z,2.98
2019-03-04T13:21:55.849Z,2.90
2019-03-04T13:24:26.289Z,3.47
2019-03-04T13:26:57.499Z,3.80
2019-03-04T13:29:27.920Z,4.90
2019-03-04T13:31:58.786Z,4.62
2019-03-04T13:34:29.423Z,5.12
2019-03-04T13:36:59.958Z,4.90
2019-03-04T13:39:30.561Z,3.98
2019-03-04T13:42:02.104Z,3.45
2019-03-04T13:44:32.990Z,2.87
2019-03-04T13:47:07.083Z,8.53
2019-03-04T13:49:37.591Z,8.23
2019-03-04T13:52:08.319Z,4.03
2019-03-04T13:54:38.742Z,3.08
2019-03-04T13:57:10.013Z,5.37
2019-03-04T13:59:40.561Z,5.75
2019-03-04T14:02:12.530Z,30.43
2019-03-04T14:04:44.689Z,23.95
2019-03-04T14:07:15.227Z,13.50
2019-03-04T14:09:47.269Z,6.35
2019-03-04T14:12:19.346Z,7.47
2019-03-04T14:14:50.216Z,5.53
2019-03-04T14:17:20.750Z,5.28
2019-03-04T14:19:51.247Z,5.10
2019-03-04T14:22:21.852Z,4.70
2019-03-04T14:24:52.283Z,3.65
2019-03-04T14:27:22.796Z,4.08
2019-03-04T14:29:53.451Z,5.53
2019-03-04T14:32:26.141Z,5.25
2019-03-04T14:34:57.179Z,3.40
2019-03-04T14:37:35.432Z,3.08
2019-03-04T14:40:32.661Z,2.98
2019-03-04T14:43:10.625Z,2.70
2019-03-04T14:45:41.057Z,3.20
2019-03-04T14:48:11.521Z,3.30
2019-03-04T14:50:42.170Z,3.45
2019-03-04T14:53:12.638Z,4.08
2019-03-04T14:55:43.239Z,4.42
2019-03-04T14:58:13.712Z,3.47
2019-03-04T15:00:51.589Z,3.17
2019-03-04T15:03:23.837Z,3.83
2019-03-04T15:05:54.264Z,2.75
2019-03-04T15:08:24.800Z,2.90
2019-03-04T15:10:55.225Z,2.90
2019-03-04T15:13:25.682Z,2.80
2019-03-04T15:16:01.658Z,2.77
2019-03-04T15:18:29.341Z,2.58
2019-03-04T15:20:59.772Z,2.12
2019-03-04T15:23:30.392Z,2.00
2019-03-04T15:26:00.830Z,2.30
2019-03-04T15:28:31.350Z,2.22
2019-03-04T15:31:05.268Z,3.10
2019-03-04T15:33:37.732Z,3.47
2019-03-04T15:36:08.161Z,4.92
2019-03-04T15:38:38.635Z,3.98
2019-03-04T15:41:10.522Z,2.75
2019-03-04T15:43:43.494Z,3.10
2019-03-04T15:46:16.216Z,2.58
2019-03-04T15:48:46.918Z,2.00
2019-03-04T15:51:17.916Z,2.50
2019-03-04T15:53:50.328Z,1.37
2019-03-04T15:56:20.741Z,1.60
2019-03-04T15:58:51.832Z,1.50
2019-03-04T16:01:22.680Z,1.50
2019-03-04T16:03:53.589Z,1.57
2019-03-04T16:06:24.891Z,1.47
2019-03-04T16:08:57.104Z,1.60
2019-03-04T16:11:27.647Z,1.32
2019-03-04T16:13:59.677Z,1.37
2019-03-04T16:16:30.620Z,1.80
2019-03-04T16:19:01.169Z,1.70
2019-03-04T16:21:32.249Z,1.85
2019-03-04T16:24:03.255Z,2.10
2019-03-04T16:26:34.864Z,1.40
2019-03-04T16:29:05.729Z,2.20
2019-03-04T16:31:36.309Z,2.12
2019-03-04T16:34:06.850Z,5.30
2019-03-04T16:36:37.463Z,3.00
2019-03-04T16:39:10.261Z,3.75
2019-03-04T16:41:41.694Z,1.70
2019-03-04T16:44:17.057Z,1.55
2019-03-04T16:46:48.528Z,2.22
2019-03-04T16:49:19.194Z,2.02
2019-03-04T16:51:50.349Z,2.42
2019-03-04T16:54:20.919Z,2.58
2019-03-04T16:56:51.465Z,2.40
2019-03-04T16:59:22.025Z,2.10
2019-03-04T17:01:53.522Z,2.00
2019-03-04T17:04:24.159Z,2.25
2019-03-04T17:06:55.884Z,2.62
2019-03-04T17:09:26.483Z,2.62
2019-03-04T17:11:57.385Z,2.87
2019-03-04T17:14:29.179Z,2.27
2019-03-04T17:17:00.073Z,2.17
2019-03-04T17:19:31.933Z,2.00
2019-03-04T17:22:02.603Z,6.78
2019-03-04T17:24:35.650Z,11.90
2019-03-04T17:27:08.683Z,4.37
2019-03-04T17:29:40.116Z,2.35
2019-03-04T17:32:11.014Z,1.95
2019-03-04T17:34:41.560Z,1.90
2019-03-04T17:37:12.838Z,3.40
2019-03-04T17:39:43.869Z,4.95
2019-03-04T17:42:14.572Z,5.42
2019-03-04T17:44:45.087Z,2.85
2019-03-04T17:47:15.595Z,2.55
2019-03-04T17:49:46.213Z,2.98
2019-03-04T17:52:16.693Z,1.95
2019-03-04T17:54:47.151Z,1.77
2019-03-04T17:57:17.861Z,2.08
2019-03-04T17:59:48.395Z,1.60
2019-03-04T18:02:19.068Z,1.80
2019-03-04T18:04:49.727Z,1.90
2019-03-04T18:07:20.219Z,1.77
2019-03-04T18:09:50.716Z,5.40
2019-03-04T18:12:53.292Z,6.95
2019-03-04T18:16:15.831Z,3.60
2019-03-04T18:18:53.862Z,6.05
2019-03-04T18:21:24.438Z,3.05
2019-03-04T18:23:54.942Z,2.12
2019-03-04T18:26:31.674Z,4.00
2019-03-04T18:29:23.094Z,2.00
2019-03-04T18:32:08.803Z,5.17
2019-03-04T18:34:42.561Z,9.83
2019-03-04T18:37:21.886Z,8.70
2019-03-04T18:39:58.153Z,4.90
2019-03-04T18:42:34.844Z,6.20
2019-03-04T18:45:14.241Z,5.10
2019-03-04T18:48:00.401Z,5.17
2019-03-04T18:50:30.921Z,4.40
2019-03-04T18:53:01.841Z,3.85
2019-03-04T18:55:33.357Z,2.75
2019-03-04T18:58:04.161Z,2.20
2019-03-04T19:00:34.673Z,2.72
2019-03-04T19:03:05.291Z,1.80
2019-03-04T19:05:36.783Z,0.80
2019-03-04T19:08:07.325Z,1.27
2019-03-04T19:10:37.806Z,1.32
2019-03-04T19:13:08.352Z,1.65
2019-03-04T19:15:38.801Z,1.77
2019-03-04T19:18:09.373Z,0.80
2019-03-04T19:20:39.901Z,1.17
2019-03-04T19:23:10.558Z,0.82
2019-03-04T19:25:41.032Z,1.27
2019-03-04T19:28:11.578Z,0.80
2019-03-04T19:31:18.496Z,0.80
2019-03-04T19:33:51.293Z,1.45
2019-03-04T19:36:23.249Z,1.00
2019-03-04T19:38:55.894Z,1.15
2019-03-04T19:41:27.109Z,1.00
2019-03-04T19:43:57.547Z,1.12
2019-03-04T19:46:28.032Z,0.80
2019-03-04T19:48:58.581Z,0.88
2019-03-04T19:51:29.458Z,0.75
2019-03-04T19:54:06.352Z,0.72
2019-03-04T19:56:38.756Z,1.20
2019-03-04T19:59:09.466Z,0.95
2019-03-04T20:01:40.346Z,1.12
2019-03-04T20:04:12.634Z,1.10
2019-03-04T20:06:43.122Z,1.40
2019-03-04T20:09:13.737Z,0.85
2019-03-04T20:11:44.230Z,1.32
2019-03-04T20:14:15.165Z,1.40
2019-03-04T20:16:47.013Z,1.65
2019-03-04T20:19:17.521Z,1.45
2019-03-04T20:21:47.945Z,1.92
2019-03-04T20:24:18.535Z,1.10
2019-03-04T20:26:49.015Z,1.75
2019-03-04T20:29:19.523Z,1.60
2019-03-04T20:31:50.009Z,1.70
2019-03-04T20:34:20.742Z,2.00
2019-03-04T20:36:51.253Z,1.62
2019-03-04T20:39:21.852Z,2.40
2019-03-04T20:41:52.352Z,2.47
2019-03-04T20:44:22.876Z,1.50
2019-03-04T20:46:53.441Z,2.25
2019-03-04T20:49:24.042Z,1.80
2019-03-04T20:51:55.547Z,1.87
2019-03-04T20:54:26.052Z,2.12
2019-03-04T20:56:56.673Z,1.87
2019-03-04T20:59:27.177Z,2.27
2019-03-04T21:01:57.746Z,1.98
2019-03-04T21:04:41.250Z,2.10
2019-03-04T21:07:13.993Z,2.30
2019-03-04T21:09:45.129Z,1.60
2019-03-04T21:12:15.657Z,1.67
2019-03-04T21:14:46.229Z,1.75
2019-03-04T21:17:16.718Z,2.10
2019-03-04T21:19:47.247Z,2.10
2019-03-04T21:22:17.746Z,2.20
2019-03-04T21:24:48.275Z,2.00
2019-03-04T21:27:18.762Z,2.15
2019-03-04T21:30:16.607Z,2.77
2019-03-04T21:32:47.280Z,2.22
2019-03-04T21:35:36.979Z,2.10
2019-03-04T21:38:07.541Z,2.52
2019-03-04T21:40:43.931Z,2.50
2019-03-04T21:43:18.664Z,2.80
2019-03-04T21:46:07.293Z,2.72
2019-03-04T21:48:43.705Z,2.60
2019-03-04T21:51:38.285Z,2.60
2019-03-04T21:54:07.457Z,2.27
2019-03-04T21:57:00.254Z,2.80
2019-03-04T21:59:30.753Z,2.10
2019-03-04T22:02:23.198Z,2.08
2019-03-04T22:04:54.742Z,1.70
2019-03-04T22:07:25.278Z,2.37
2019-03-04T22:09:55.727Z,2.65
2019-03-04T22:12:26.245Z,2.08
2019-03-04T22:14:56.802Z,1.98
2019-03-04T22:17:27.337Z,2.10
2019-03-04T22:19:57.756Z,1.92
2019-03-04T22:22:28.342Z,2.10
2019-03-04T22:25:16.425Z,2.58
2019-03-04T22:28:14.006Z,1.92
2019-03-04T22:30:53.141Z,2.72
2019-03-04T22:33:25.074Z,1.95
2019-03-04T22:36:06.124Z,2.22
2019-03-04T22:38:39.830Z,2.20
2019-03-04T22:41:10.659Z,1.80
2019-03-04T22:43:41.173Z,2.30
2019-03-04T22:46:11.598Z,2.37
2019-03-04T22:48:42.214Z,1.98
2019-03-04T22:51:13.684Z,2.55
2019-03-04T22:53:45.201Z,3.08
2019-03-04T22:56:16.714Z,2.50
2019-03-04T22:58:47.211Z,2.40
2019-03-04T23:01:26.926Z,2.33
2019-03-04T23:04:00.527Z,2.47
2019-03-04T23:06:36.992Z,2.77
2019-03-04T23:09:10.706Z,2.60
2019-03-04T23:11:44.695Z,2.67
2019-03-04T23:14:18.541Z,2.52
2019-03-04T23:16:49.024Z,2.80
2019-03-04T23:19:19.480Z,2.90
2019-03-04T23:21:49.981Z,2.60
2019-03-04T23:24:20.442Z,2.75
2019-03-04T23:26:50.936Z,2.67
2019-03-04T23:29:21.402Z,3.20
2019-03-04T23:31:51.830Z,3.20
2019-03-04T23:34:23.454Z,3.22
2019-03-04T23:36:53.872Z,2.85
2019-03-04T23:39:24.331Z,3.60
2019-03-04T23:41:54.753Z,3.00
2019-03-04T23:44:25.198Z,3.27
2019-03-04T23:46:55.693Z,3.27
2019-03-04T23:49:26.136Z,3.27
2019-03-04T23:51:56.537Z,3.60
2019-03-04T23:54:26.985Z,3.67
2019-03-04T23:56:57.410Z,3.52
2019-03-04T23:59:28.023Z,4.22
